Time;durP1;ratioP1;P1;durP2;ratioP2;P2;SDS_P1;SDS_P2;PMS_P1;PMS_P2;Temp;Humidity;BMP_temperature;BMP_pressure;BME280_temperature;BME280_humidity;BME280_pressure;Samples;Min_cycle;Max_cycle;Signal;HPM_P1;HPM_P2
2023/06/15 00:03:33;;;;;;;14.85;5.85;;;;;;;18.27;50.40;101464.34;10262827;28;20063;-78
2023/06/15 00:08:35;;;;;;;16.27;6.22;;;;;;;17.97;50.73;101454.72;10262133;29;20035;-79
2023/06/15 00:13:37;;;;;;;10.70;6.18;;;;;;;17.98;51.35;101458.31;10268770;29;20039;-78
2023/06/15 00:18:40;;;;;;;11.38;5.57;;;;;;;17.83;51.88;101453.09;10273692;29;20039;-78
2023/06/15 00:23:44;;;;;;;10.05;5.85;;;;;;;17.84;51.98;101454.75;10266450;29;20055;-78
2023/06/15 00:28:46;;;;;;;11.75;5.95;;;;;;;17.81;52.71;101461.75;10282076;29;20047;-78
2023/06/15 00:33:48;;;;;;;16.10;6.28;;;;;;;17.65;53.06;101457.59;10281294;29;20059;-78
2023/06/15 00:38:53;;;;;;;13.10;6.28;;;;;;;17.81;52.49;101461.75;10282639;29;20055;-78
2023/06/15 00:43:56;;;;;;;21.65;6.68;;;;;;;17.52;52.78;101461.19;10268625;29;20051;-78
2023/06/15 00:49:01;;;;;;;20.15;7.05;;;;;;;17.26;53.84;101460.88;10253437;29;20047;-78
2023/06/15 00:54:03;;;;;;;18.25;6.25;;;;;;;17.15;54.45;101458.28;10233695;28;20063;-78
2023/06/15 00:59:05;;;;;;;12.35;6.47;;;;;;;17.29;55.03;101454.72;10249067;29;20416;-78
2023/06/15 01:04:08;;;;;;;14.57;6.88;;;;;;;17.17;55.44;101450.47;10266935;29;20118;-78
2023/06/15 01:09:11;;;;;;;16.85;6.90;;;;;;;16.90;57.00;101452.38;10259440;29;20043;-78
2023/06/15 01:14:15;;;;;;;16.17;6.68;;;;;;;16.82;58.25;101453.88;10255354;29;20039;-78
2023/06/15 01:19:31;;;;;;;16.23;6.80;;;;;;;17.05;57.45;101458.47;10267208;29;20043;-78
2023/06/15 01:24:36;;;;;;;17.25;7.18;;;;;;;17.45;56.52;101450.50;10266945;29;20078;-78
2023/06/15 01:29:41;;;;;;;14.63;7.10;;;;;;;17.59;56.45;101445.78;10263654;29;20044;-78
2023/06/15 01:34:43;;;;;;;15.38;6.53;;;;;;;17.82;55.65;101454.22;10266778;28;20055;-78
2023/06/15 01:39:46;;;;;;;18.05;7.55;;;;;;;17.84;55.27;101452.78;10259525;29;20070;-78
2023/06/15 01:44:52;;;;;;;15.52;6.93;;;;;;;17.94;55.36;101451.75;10257119;29;20051;-78
2023/06/15 01:49:55;;;;;;;15.25;7.20;;;;;;;17.99;55.59;101455.25;10270410;29;20425;-78
2023/06/15 01:54:58;;;;;;;14.20;7.03;;;;;;;18.28;54.17;101454.88;10280816;28;20043;-78
2023/06/15 02:00:01;;;;;;;21.05;7.35;;;;;;;18.43;53.60;101456.47;10272850;29;20035;-78
2023/06/15 02:05:05;;;;;;;21.13;7.38;;;;;;;18.60;53.40;101462.19;10254848;29;20419;-78
2023/06/15 02:10:08;;;;;;;15.77;7.57;;;;;;;18.73;52.71;101463.25;10265181;28;20522;-78
2023/06/15 02:15:10;;;;;;;16.63;7.15;;;;;;;18.89;52.79;101452.56;10251887;29;20043;-78
2023/06/15 02:20:13;;;;;;;13.90;7.45;;;;;;;19.12;52.56;101456.16;10229961;29;20520;-78
2023/06/15 02:25:15;;;;;;;12.32;6.78;;;;;;;19.57;51.40;101463.28;10265054;29;20516;-78
2023/06/15 02:30:17;;;;;;;16.02;6.72;;;;;;;19.64;50.82;101459.22;10268833;29;20050;-78
2023/06/15 02:35:20;;;;;;;19.08;7.80;;;;;;;19.82;50.60;101456.16;10231732;29;20712;-78
2023/06/15 02:40:22;;;;;;;19.33;6.65;;;;;;;19.78;50.65;101465.47;10260592;29;20041;-78
2023/06/15 02:45:26;;;;;;;12.00;6.47;;;;;;;19.64;50.46;101468.38;10253048;28;20054;-78
2023/06/15 02:50:28;;;;;;;19.50;6.97;;;;;;;19.94;50.44;101468.63;10256833;29;20055;-78
2023/06/15 02:55:41;;;;;;;18.35;7.72;;;;;;;20.21;49.06;101467.53;10252717;29;20537;-79
2023/06/15 03:00:46;;;;;;;17.45;6.80;;;;;;;20.47;48.43;101468.38;10253311;29;20495;-78
2023/06/15 03:05:59;;;;;;;17.02;7.07;;;;;;;20.63;46.90;101463.97;10258196;29;20529;-78
2023/06/15 03:11:03;;;;;;;14.23;6.85;;;;;;;21.09;46.39;101468.00;10262430;29;20039;-78
2023/06/15 03:16:07;;;;;;;12.30;6.18;;;;;;;21.49;44.71;101462.16;10272765;28;20051;-78
2023/06/15 03:21:12;;;;;;;14.90;6.18;;;;;;;21.30;46.03;101463.38;10268208;29;20364;-78
2023/06/15 03:26:16;;;;;;;10.48;5.93;;;;;;;21.76;44.65;101464.50;10275680;29;20043;-78
2023/06/15 03:31:19;;;;;;;12.10;5.32;;;;;;;21.65;43.54;101464.03;10278754;29;20043;-78
2023/06/15 03:36:25;;;;;;;8.90;4.90;;;;;;;21.70;44.19;101468.66;10280396;29;20042;-79
2023/06/15 03:41:27;;;;;;;7.47;4.57;;;;;;;21.81;41.60;101461.50;10265421;29;20062;-79
2023/06/15 03:46:31;;;;;;;9.70;4.75;;;;;;;21.96;41.16;101469.31;10279435;29;20047;-78
2023/06/15 03:51:33;;;;;;;6.35;4.13;;;;;;;22.70;40.09;101467.78;10277669;29;20043;-77
2023/06/15 03:56:36;;;;;;;7.13;3.80;;;;;;;22.82;40.43;101465.06;10269825;29;20051;-77
2023/06/15 04:01:38;;;;;;;6.93;4.05;;;;;;;23.19;39.69;101467.16;10275036;29;20054;-79
2023/06/15 04:06:46;;;;;;;12.70;4.30;;;;;;;23.61;38.79;101468.66;10272680;29;20047;-79
2023/06/15 04:11:50;;;;;;;8.05;4.22;;;;;;;23.93;37.43;101460.47;10273906;29;20043;-79
2023/06/15 04:16:52;;;;;;;11.77;3.92;;;;;;;23.95;37.83;101460.91;10274558;29;20058;-79
2023/06/15 04:21:55;;;;;;;9.18;3.60;;;;;;;24.52;36.33;101468.31;10248373;29;20055;-79
2023/06/15 04:26:57;;;;;;;7.10;3.88;;;;;;;24.69;36.43;101464.41;10267247;28;20048;-79
2023/06/15 04:32:03;;;;;;;11.23;4.03;;;;;;;24.98;35.24;101463.19;10284834;29;20054;-79
2023/06/15 04:37:08;;;;;;;7.35;3.60;;;;;;;25.14;33.51;101459.28;10287229;29;20051;-80
2023/06/15 04:42:12;;;;;;;5.32;3.13;;;;;;;25.39;32.18;101462.75;10279614;29;20571;-81
2023/06/15 04:47:16;;;;;;;6.28;3.08;;;;;;;25.61;32.69;101458.47;10284452;28;20055;-80
2023/06/15 04:52:20;;;;;;;5.95;3.05;;;;;;;25.85;31.80;101458.28;10278706;29;20046;-80
2023/06/15 04:57:23;;;;;;;7.75;3.47;;;;;;;26.13;32.10;101468.59;10283702;29;20047;-80
2023/06/15 05:02:27;;;;;;;4.43;3.03;;;;;;;26.25;31.51;101453.59;10283335;29;20050;-80
2023/06/15 05:07:29;;;;;;;5.88;2.90;;;;;;;26.61;30.21;101460.81;10298843;28;20051;-80
2023/06/15 05:12:31;;;;;;;6.10;2.83;;;;;;;26.44;30.64;101462.09;10284770;29;20510;-80
2023/06/15 05:17:34;;;;;;;4.80;2.55;;;;;;;26.45;29.96;101452.44;10284882;28;22891;-81
2023/06/15 05:22:36;;;;;;;5.60;2.40;;;;;;;26.62;29.11;101462.47;10286178;28;20102;-83
2023/06/15 05:27:39;;;;;;;4.82;2.50;;;;;;;26.90;29.62;101450.94;10282927;29;20050;-80
2023/06/15 05:32:41;;;;;;;7.50;2.50;;;;;;;27.07;28.57;101453.31;10284761;29;20058;-80
2023/06/15 05:37:46;;;;;;;3.80;2.20;;;;;;;27.37;27.57;101450.63;10267699;29;20059;-81
2023/06/15 05:42:49;;;;;;;3.65;2.05;;;;;;;27.79;26.68;101456.22;10283011;28;20055;-81
2023/06/15 05:47:51;;;;;;;5.05;2.40;;;;;;;27.87;26.57;101455.13;10282513;29;20047;-81
2023/06/15 05:52:55;;;;;;;4.20;2.25;;;;;;;27.58;26.78;101458.63;10276950;29;20079;-80
2023/06/15 05:57:58;;;;;;;2.47;1.60;;;;;;;27.57;25.30;101462.66;10276497;29;20047;-80
2023/06/15 06:03:01;;;;;;;5.05;1.95;;;;;;;28.12;25.82;101461.16;10263964;29;20039;-80
2023/06/15 06:08:11;;;;;;;2.40;1.90;;;;;;;28.09;25.55;101458.25;10253583;29;20403;-80
2023/06/15 06:13:14;;;;;;;4.97;2.13;;;;;;;28.59;25.97;101461.78;10249347;29;20047;-79
2023/06/15 06:18:16;;;;;;;5.00;2.17;;;;;;;28.75;24.05;101465.22;10279752;29;20062;-81
2023/06/15 06:23:18;;;;;;;4.45;1.98;;;;;;;28.60;24.56;101458.56;10283747;28;20054;-79
2023/06/15 06:28:20;;;;;;;2.88;2.08;;;;;;;28.73;23.66;101459.94;10282598;28;20051;-79
2023/06/15 06:33:23;;;;;;;7.95;2.25;;;;;;;28.48;24.08;101462.47;10281994;29;20047;-79
2023/06/15 06:38:25;;;;;;;2.53;1.90;;;;;;;29.04;23.67;101461.53;10281127;29;20063;-80
2023/06/15 06:43:27;;;;;;;2.58;1.85;;;;;;;29.36;24.00;101467.50;10281909;29;20038;-80
2023/06/15 06:48:30;;;;;;;2.08;1.85;;;;;;;29.58;23.63;101462.06;10281495;29;20140;-80
2023/06/15 06:53:32;;;;;;;2.33;1.90;;;;;;;29.25;24.05;101463.75;10281474;28;20421;-79
2023/06/15 06:58:34;;;;;;;3.90;1.92;;;;;;;29.51;24.16;101460.00;10263282;29;20422;-80
2023/06/15 07:03:39;;;;;;;4.65;1.90;;;;;;;28.03;24.41;101449.31;10279633;29;20054;-80
2023/06/15 07:08:42;;;;;;;8.88;2.30;;;;;;;28.37;24.42;101453.03;10282983;28;20047;-80
2023/06/15 07:13:45;;;;;;;5.55;2.25;;;;;;;28.95;24.26;101444.06;10281272;28;20055;-80
2023/06/15 07:18:48;;;;;;;3.90;2.30;;;;;;;29.64;23.70;101450.00;10279784;29;20039;-77
2023/06/15 07:23:50;;;;;;;6.18;2.30;;;;;;;28.66;24.64;101447.75;10280138;29;20043;-76
2023/06/15 07:28:53;;;;;;;4.65;2.13;;;;;;;29.05;24.05;101443.38;10281787;29;20047;-77
2023/06/15 07:33:56;;;;;;;2.58;2.00;;;;;;;29.73;23.76;101446.03;10268244;28;20059;-76
2023/06/15 07:38:58;;;;;;;3.97;2.00;;;;;;;30.37;22.85;101444.41;10252330;29;20077;-76
2023/06/15 07:44:01;;;;;;;3.90;1.95;;;;;;;30.56;22.70;101440.47;10276477;29;20051;-77
2023/06/15 07:49:03;;;;;;;3.38;2.17;;;;;;;30.68;22.26;101434.44;10257255;28;20044;-75
2023/06/15 07:54:06;;;;;;;4.05;2.58;;;;;;;30.11;23.21;101442.66;10277601;28;20081;-76
2023/06/15 07:59:08;;;;;;;2.30;2.10;;;;;;;31.02;22.55;101440.63;10262162;29;20046;-76
2023/06/15 08:04:11;;;;;;;3.00;1.88;;;;;;;31.19;21.79;101430.53;10276251;28;20495;-77
2023/06/15 08:09:14;;;;;;;8.83;2.37;;;;;;;31.15;21.53;101424.84;10284981;29;20047;-77
2023/06/15 08:14:19;;;;;;;5.68;1.90;;;;;;;30.36;22.69;101422.16;10285377;29;20047;-74
2023/06/15 08:19:21;;;;;;;3.70;2.08;;;;;;;30.23;22.69;101419.69;10286187;28;20050;-74
2023/06/15 08:24:23;;;;;;;4.65;2.13;;;;;;;30.32;22.34;101424.97;10271490;29;20043;-74
2023/06/15 08:29:25;;;;;;;3.95;2.28;;;;;;;29.65;23.09;101422.50;10288149;29;20055;-75
2023/06/15 08:34:30;;;;;;;;;;;;;;;30.08;21.84;101412.31;10274991;29;20050;-75
2023/06/15 08:39:32;;;;;;;2.78;1.98;;;;;;;30.65;22.10;101412.59;10287533;28;20507;-74
2023/06/15 08:44:35;;;;;;;3.45;2.00;;;;;;;30.48;21.81;101416.94;10287626;28;20412;-74
2023/06/15 08:49:38;;;;;;;3.78;1.98;;;;;;;30.68;21.74;101394.78;10287739;29;20505;-74
2023/06/15 08:54:42;;;;;;;3.08;2.33;;;;;;;29.66;23.20;101398.69;10286772;29;20058;-74
2023/06/15 08:59:45;;;;;;;4.88;2.08;;;;;;;29.60;22.96;101403.91;10286905;29;20066;-74
2023/06/15 09:04:51;;;;;;;5.88;2.08;;;;;;;29.90;22.96;101395.22;10279644;28;20043;-75
2023/06/15 09:10:12;;;;;;;;;;;;;;;29.84;23.44;101402.44;10260630;29;20039;-74
2023/06/15 09:15:18;;;;;;;4.13;2.33;;;;;;;29.81;22.75;101396.75;10281314;28;19923;-74
2023/06/15 09:20:24;;;;;;;4.10;2.20;;;;;;;29.31;23.10;101391.53;10264503;28;20035;-74
2023/06/15 09:25:28;;;;;;;4.77;2.27;;;;;;;28.96;23.85;101392.00;10266140;29;20043;-75
2023/06/15 09:30:39;;;;;;;5.10;2.15;;;;;;;27.92;24.71;101389.91;10283809;28;20055;-75
2023/06/15 09:36:02;;;;;;;3.22;2.20;;;;;;;27.59;24.45;101375.66;10281123;28;20043;-74
2023/06/15 09:41:05;;;;;;;2.95;1.90;;;;;;;27.10;24.74;101381.34;10285501;28;20039;-74
2023/06/15 09:46:13;;;;;;;4.30;2.88;;;;;;;26.55;25.32;101378.66;10284123;28;20059;-74
2023/06/15 09:51:18;;;;;;;2.60;1.98;;;;;;;26.19;25.95;101381.91;10284073;28;20146;-74
2023/06/15 09:56:23;;;;;;;4.07;2.03;;;;;;;26.23;26.45;101382.81;10279263;28;20380;-74
2023/06/15 10:01:28;;;;;;;4.68;2.63;;;;;;;26.23;26.75;101380.00;10282578;28;20047;-74
2023/06/15 10:06:33;;;;;;;2.88;2.20;;;;;;;25.97;26.43;101375.81;10295911;28;20566;-76
2023/06/15 10:11:41;;;;;;;4.60;2.45;;;;;;;25.72;25.43;101375.28;10281284;28;20070;-74
2023/06/15 10:16:49;;;;;;;5.68;2.15;;;;;;;25.65;25.91;101365.81;10283802;28;20058;-73
2023/06/15 10:21:52;;;;;;;3.05;1.90;;;;;;;25.93;26.31;101366.50;10270774;28;20039;-73
2023/06/15 10:26:56;;;;;;;3.42;2.20;;;;;;;26.05;25.12;101366.38;10260050;28;20050;-74
2023/06/15 10:32:07;;;;;;;3.00;2.10;;;;;;;25.82;24.95;101365.44;10282344;28;20058;-76
2023/06/15 10:37:30;;;;;;;2.67;1.92;;;;;;;25.85;25.76;101361.88;10280269;28;20054;-74
2023/06/15 10:42:47;;;;;;;5.35;2.33;;;;;;;26.02;27.15;101367.06;10293395;28;20051;-74
2023/06/15 10:47:50;;;;;;;5.53;2.38;;;;;;;26.02;26.58;101355.81;10276808;28;20051;-75
2023/06/15 10:52:54;;;;;;;3.83;2.40;;;;;;;26.00;26.91;101352.56;10265807;28;20414;-75
2023/06/15 10:58:16;;;;;;;5.30;2.67;;;;;;;26.08;28.19;101348.75;10260556;28;20394;-75
2023/06/15 11:03:25;;;;;;;3.65;2.90;;;;;;;26.13;29.46;101331.56;10252641;29;20039;-77
2023/06/15 11:08:31;;;;;;;4.70;3.20;;;;;;;26.03;28.59;101337.78;10281904;28;20051;-75
2023/06/15 11:13:33;;;;;;;4.07;2.53;;;;;;;25.91;29.19;101325.88;10267885;28;20051;-77
2023/06/15 11:18:36;;;;;;;4.00;2.85;;;;;;;25.86;29.64;101321.34;10272915;28;20039;-77
2023/06/15 11:23:39;;;;;;;5.07;2.85;;;;;;;25.97;30.09;101321.56;10275720;28;20043;-74
2023/06/15 11:28:43;;;;;;;3.40;2.72;;;;;;;26.11;28.90;101325.50;10274752;28;20506;-77
2023/06/15 11:33:45;;;;;;;4.85;2.67;;;;;;;25.97;29.81;101313.13;10264525;29;20082;-73
2023/06/15 11:38:48;;;;;;;3.30;2.67;;;;;;;25.91;29.73;101312.63;10266073;28;20046;-77
2023/06/15 11:43:51;;;;;;;3.58;2.40;;;;;;;25.91;29.02;101315.44;10285043;28;20035;-77
2023/06/15 11:48:55;;;;;;;3.47;2.60;;;;;;;25.91;28.55;101309.00;10276801;28;20045;-78
2023/06/15 11:53:57;;;;;;;4.93;2.67;;;;;;;26.00;28.53;101306.75;10262115;28;20051;-76
2023/06/15 11:59:00;;;;;;;4.40;2.33;;;;;;;26.02;28.46;101313.63;10278690;28;20042;-77
2023/06/15 12:04:12;;;;;;;6.18;2.80;;;;;;;26.19;28.75;101303.13;10288198;28;20055;-77
2023/06/15 12:09:16;;;;;;;6.28;2.38;;;;;;;26.14;27.55;101295.81;10277220;28;20048;-78
2023/06/15 12:14:21;;;;;;;4.55;2.88;;;;;;;26.07;28.06;101296.50;10286092;28;20039;-78
2023/06/15 12:19:23;;;;;;;4.55;2.85;;;;;;;26.09;27.31;101291.31;10284401;28;20410;-76
2023/06/15 12:24:25;;;;;;;5.13;2.60;;;;;;;26.27;27.44;101288.84;10286936;29;20046;-75
2023/06/15 12:29:27;;;;;;;9.57;3.30;;;;;;;26.31;28.05;101284.09;10284660;29;20046;-77
2023/06/15 12:34:29;;;;;;;3.55;2.75;;;;;;;26.14;26.67;101279.75;10286220;28;20093;-80
2023/06/15 12:39:33;;;;;;;6.30;2.38;;;;;;;25.99;27.05;101277.81;10283236;28;20051;-76
2023/06/15 12:44:35;;;;;;;7.13;3.10;;;;;;;25.93;26.81;101270.88;10269483;28;20055;-77
2023/06/15 12:49:38;;;;;;;3.35;2.70;;;;;;;25.80;27.87;101266.59;10269335;28;20430;-77
2023/06/15 12:54:40;;;;;;;7.70;3.00;;;;;;;26.07;27.51;101268.38;10278557;28;20062;-77
2023/06/15 12:59:42;;;;;;;4.38;2.80;;;;;;;25.96;27.54;101272.94;10272063;28;20047;-81
2023/06/15 13:04:45;;;;;;;4.55;2.55;;;;;;;26.04;27.72;101259.84;10284113;28;20138;-80
2023/06/15 13:09:47;;;;;;;4.82;2.67;;;;;;;25.82;27.11;101250.16;10283868;29;20050;-76
2023/06/15 13:14:49;;;;;;;4.43;2.60;;;;;;;25.75;28.28;101247.22;10269885;28;20503;-76
2023/06/15 13:19:51;;;;;;;6.80;2.80;;;;;;;25.80;28.45;101246.91;10282548;28;20043;-76
2023/06/15 13:24:53;;;;;;;6.25;3.03;;;;;;;25.89;27.06;101239.06;10284672;29;20070;-75
2023/06/15 13:29:55;;;;;;;5.60;2.60;;;;;;;25.71;28.15;101244.31;10283578;28;20043;-76
2023/06/15 13:34:58;;;;;;;10.45;2.88;;;;;;;25.78;28.43;101243.66;10282354;28;20051;-76
2023/06/15 13:40:01;;;;;;;4.68;2.75;;;;;;;25.70;29.46;101239.88;10279879;28;20047;-75
2023/06/15 13:45:04;;;;;;;5.03;2.80;;;;;;;25.55;28.50;101241.53;10293394;28;20051;-76
2023/06/15 13:50:08;;;;;;;4.53;2.78;;;;;;;25.64;29.60;101232.06;10283370;28;20039;-75
2023/06/15 13:55:10;;;;;;;3.97;2.60;;;;;;;25.68;29.60;101239.41;10278957;28;20047;-75
2023/06/15 14:00:13;;;;;;;5.97;3.03;;;;;;;25.69;29.49;101234.63;10278570;28;20055;-74
2023/06/15 14:05:16;;;;;;;4.40;2.78;;;;;;;25.59;29.33;101230.38;10275523;28;20465;-77
2023/06/15 14:10:18;;;;;;;7.60;4.60;;;;;;;25.39;29.83;101226.72;10278932;28;20058;-77
2023/06/15 14:15:21;;;;;;;4.47;2.22;;;;;;;25.29;30.63;101221.69;10273007;28;20051;-76
2023/06/15 14:20:23;;;;;;;4.43;2.45;;;;;;;25.06;31.48;101218.75;10269675;28;20050;-76
2023/06/15 14:25:26;;;;;;;5.30;2.70;;;;;;;24.84;30.68;101214.59;10269796;29;20072;-77
2023/06/15 14:30:28;;;;;;;3.05;2.05;;;;;;;24.72;31.67;101213.88;10273225;28;20057;-80
2023/06/15 14:35:30;;;;;;;2.97;2.30;;;;;;;24.61;31.86;101216.41;10278329;28;20059;-77
2023/06/15 14:40:33;;;;;;;6.35;2.70;;;;;;;24.53;32.08;101212.63;10272612;28;20051;-72
2023/06/15 14:45:35;;;;;;;6.65;2.28;;;;;;;24.57;31.39;101212.72;10283201;28;20051;-72
2023/06/15 14:50:37;;;;;;;4.28;2.28;;;;;;;24.44;31.85;101211.97;10283697;29;20058;-72
2023/06/15 14:55:41;;;;;;;6.10;2.20;;;;;;;24.34;31.30;101209.72;10282397;29;20038;-72
2023/06/15 15:00:43;;;;;;;4.78;2.78;;;;;;;24.37;31.46;101203.38;10282925;29;20043;-74
2023/06/15 15:05:46;;;;;;;6.97;3.00;;;;;;;24.16;32.70;101200.81;10281377;29;20414;-73
2023/06/15 15:10:48;;;;;;;3.95;2.80;;;;;;;24.16;32.88;101197.19;10282848;29;20047;-73
2023/06/15 15:15:50;;;;;;;3.03;2.22;;;;;;;24.21;32.20;101196.91;10282185;28;20054;-73
2023/06/15 15:20:59;;;;;;;3.38;2.15;;;;;;;24.15;32.00;101189.97;10277929;29;20533;-73
2023/06/15 15:26:03;;;;;;;3.58;2.20;;;;;;;24.15;31.79;101190.78;10282317;28;20055;-73
2023/06/15 15:31:05;;;;;;;4.93;2.50;;;;;;;24.08;31.66;101190.56;10282450;28;20059;-73
2023/06/15 15:36:07;;;;;;;3.33;2.20;;;;;;;23.99;32.79;101184.31;10281624;29;20054;-73
2023/06/15 15:41:10;;;;;;;4.05;2.03;;;;;;;23.90;32.06;101183.66;10281346;28;20039;-73
2023/06/15 15:46:12;;;;;;;4.25;2.10;;;;;;;23.94;32.14;101181.75;10276695;28;20047;-73
2023/06/15 15:51:15;;;;;;;4.82;2.10;;;;;;;23.93;32.06;101191.34;10280216;28;20066;-73
2023/06/15 15:56:17;;;;;;;4.22;2.33;;;;;;;23.94;32.99;101188.19;10281699;29;20054;-73
2023/06/15 16:01:25;;;;;;;5.57;1.92;;;;;;;23.82;32.25;101184.66;10279442;28;20498;-73
2023/06/15 16:06:27;;;;;;;5.97;2.45;;;;;;;23.76;32.60;101178.47;10280552;29;20043;-74
2023/06/15 16:11:30;;;;;;;2.53;2.15;;;;;;;23.72;32.44;101177.56;10280672;29;20046;-71
2023/06/15 16:16:32;;;;;;;4.93;2.30;;;;;;;23.60;32.40;101175.59;10269735;29;20044;-72
2023/06/15 16:21:36;;;;;;;4.93;2.58;;;;;;;23.50;33.29;101178.09;10256149;29;20442;-71
2023/06/15 16:26:38;;;;;;;3.10;2.30;;;;;;;23.60;32.62;101175.59;10281995;28;20062;-72
2023/06/15 16:31:40;;;;;;;3.22;2.50;;;;;;;23.69;32.49;101178.28;10279122;28;20074;-73
2023/06/15 16:36:42;;;;;;;5.80;2.08;;;;;;;23.72;32.38;101171.94;10282169;29;20043;-77
2023/06/15 16:41:45;;;;;;;3.17;2.05;;;;;;;23.72;32.91;101172.75;10282641;28;20062;-70
2023/06/15 16:46:48;;;;;;;2.92;2.05;;;;;;;23.64;32.89;101175.72;10281121;28;20055;-70
2023/06/15 16:51:50;;;;;;;3.63;2.22;;;;;;;23.45;33.15;101173.56;10281217;29;20054;-74
2023/06/15 16:56:52;;;;;;;4.13;2.40;;;;;;;23.37;32.84;101161.31;10279891;29;20035;-73
2023/06/15 17:01:55;;;;;;;2.63;2.13;;;;;;;23.46;32.93;101161.19;10278910;29;20506;-73
2023/06/15 17:06:57;;;;;;;4.70;2.40;;;;;;;23.53;33.14;101161.38;10279116;29;20058;-73
2023/06/15 17:11:59;;;;;;;3.42;2.35;;;;;;;23.57;34.25;101147.50;10279061;29;20048;-73
2023/06/15 17:17:02;;;;;;;4.78;2.92;;;;;;;23.61;34.44;101148.44;10276324;28;20050;-73
2023/06/15 17:22:06;;;;;;;7.13;3.45;;;;;;;23.59;36.18;101145.97;10279591;29;20035;-75
2023/06/15 17:27:08;;;;;;;5.93;2.92;;;;;;;23.45;36.77;101151.97;10280287;28;20050;-76
2023/06/15 17:32:10;;;;;;;6.53;3.15;;;;;;;23.40;36.90;101143.78;10262812;29;20058;-74
2023/06/15 17:37:13;;;;;;;6.82;3.50;;;;;;;23.34;36.87;101136.81;10281134;28;20035;-75
2023/06/15 17:42:15;;;;;;;6.65;3.95;;;;;;;23.26;37.93;101149.00;10260313;29;20050;-79
2023/06/15 17:47:17;;;;;;;7.45;4.30;;;;;;;23.16;38.57;101139.09;10278522;28;20058;-86
2023/06/15 17:52:19;;;;;;;6.38;3.90;;;;;;;23.07;38.05;101138.41;10280064;29;20055;-83
2023/06/15 17:57:22;;;;;;;8.98;3.88;;;;;;;23.02;39.08;101138.66;10274428;29;20546;-78
2023/06/15 18:02:24;;;;;;;4.85;3.45;;;;;;;22.84;39.16;101137.31;10275154;29;20039;-80
2023/06/15 18:07:26;;;;;;;6.32;3.47;;;;;;;22.70;39.54;101136.81;10273126;28;20055;-82
2023/06/15 18:12:29;;;;;;;7.95;3.75;;;;;;;22.50;40.05;101131.00;10281489;29;20047;-80
2023/06/15 18:17:31;;;;;;;6.47;2.80;;;;;;;22.39;40.28;101135.44;10280244;29;20059;-80
2023/06/15 18:22:33;;;;;;;4.78;3.15;;;;;;;22.27;40.31;101125.06;10277330;28;20043;-80
2023/06/15 18:27:36;;;;;;;5.97;3.40;;;;;;;22.17;40.58;101131.09;10273214;29;20043;-81
2023/06/15 18:32:38;;;;;;;8.82;2.95;;;;;;;22.07;40.44;101130.75;10278568;29;20051;-81
2023/06/15 18:37:40;;;;;;;6.88;2.58;;;;;;;21.92;41.09;101133.03;10277999;29;20047;-78
2023/06/15 18:42:43;;;;;;;6.60;3.42;;;;;;;21.82;41.46;101127.88;10270095;29;20043;-76
2023/06/15 18:47:45;;;;;;;4.60;2.90;;;;;;;21.74;41.87;101136.34;10271828;28;20511;-77
2023/06/15 18:52:48;;;;;;;5.00;3.33;;;;;;;21.65;41.80;101131.66;10257415;29;20050;-77
2023/06/15 18:57:50;;;;;;;5.20;3.50;;;;;;;21.57;41.93;101128.97;10281907;29;20050;-76
2023/06/15 19:02:53;;;;;;;7.78;3.55;;;;;;;21.47;41.95;101132.16;10280441;29;20050;-77
2023/06/15 19:07:55;;;;;;;6.68;4.18;;;;;;;21.25;42.36;101131.38;10278506;29;20040;-79
2023/06/15 19:12:57;;;;;;;7.30;3.90;;;;;;;21.07;43.29;101138.22;10260957;28;20050;-80
2023/06/15 19:17:59;;;;;;;7.65;3.85;;;;;;;20.99;44.06;101137.13;10277928;29;20047;-81
2023/06/15 19:23:02;;;;;;;12.80;4.50;;;;;;;20.93;45.36;101130.13;10258402;29;20047;-73
2023/06/15 19:28:04;;;;;;;9.32;5.20;;;;;;;20.84;45.39;101134.94;10276851;28;20510;-83
2023/06/15 19:33:08;;;;;;;7.30;3.80;;;;;;;20.78;45.15;101142.69;10253254;29;20054;-79
2023/06/15 19:38:11;;;;;;;9.30;4.25;;;;;;;20.71;45.76;101148.00;10278604;29;20610;-80
2023/06/15 19:43:13;;;;;;;7.07;4.00;;;;;;;20.68;46.09;101148.66;10269808;29;20043;-82
2023/06/15 19:48:15;;;;;;;8.15;5.25;;;;;;;20.56;46.57;101145.78;10275908;28;20050;-80
2023/06/15 19:53:17;;;;;;;10.65;4.50;;;;;;;20.49;47.07;101139.91;10264407;28;20050;-81
2023/06/15 19:58:19;;;;;;;8.98;5.00;;;;;;;20.46;47.34;101151.72;10249091;28;20550;-78
2023/06/15 20:03:22;;;;;;;11.27;6.47;;;;;;;20.33;49.02;101155.53;10276079;29;20618;-84
2023/06/15 20:08:24;;;;;;;14.60;6.55;;;;;;;20.18;50.33;101143.78;10278109;29;20035;-83
2023/06/15 20:13:27;;;;;;;14.43;6.50;;;;;;;20.06;51.23;101143.66;10277736;28;20047;-77
2023/06/15 20:18:30;;;;;;;10.45;6.13;;;;;;;20.03;51.34;101144.34;10283966;29;20043;-73
2023/06/15 20:23:33;;;;;;;17.13;6.15;;;;;;;19.92;51.68;101142.22;10283037;28;20067;-73
2023/06/15 20:28:35;;;;;;;11.55;5.55;;;;;;;19.87;52.20;101143.22;10283567;29;20050;-72
2023/06/15 20:33:38;;;;;;;14.05;6.30;;;;;;;19.92;51.97;101137.47;10278787;29;20039;-71
2023/06/15 20:38:41;;;;;;;8.75;5.38;;;;;;;19.98;51.54;101136.16;10282295;28;20066;-72
2023/06/15 20:43:43;;;;;;;8.60;4.82;;;;;;;20.07;51.48;101138.91;10286001;29;20050;-74
2023/06/15 20:48:46;;;;;;;10.27;5.22;;;;;;;20.12;50.51;101133.13;10284002;29;20044;-73
2023/06/15 20:53:48;;;;;;;9.90;5.32;;;;;;;20.05;50.44;101135.63;10268409;29;20058;-76
2023/06/15 20:58:50;;;;;;;9.90;5.05;;;;;;;19.94;51.20;101129.59;10284550;29;20043;-73
2023/06/15 21:03:52;;;;;;;14.05;5.20;;;;;;;19.80;51.45;101134.56;10282825;28;20043;-75
2023/06/15 21:08:55;;;;;;;10.27;5.90;;;;;;;19.69;52.24;101139.66;10285897;29;20044;-74
2023/06/15 21:13:57;;;;;;;9.65;5.07;;;;;;;19.50;53.09;101131.63;10283670;28;20404;-74
2023/06/15 21:18:59;;;;;;;9.65;4.72;;;;;;;19.45;53.42;101131.81;10286431;28;20055;-75
2023/06/15 21:24:01;;;;;;;9.25;5.10;;;;;;;19.33;53.94;101128.88;10285278;28;20051;-76
2023/06/15 21:29:04;;;;;;;7.05;4.60;;;;;;;19.24;54.35;101123.28;10283587;28;20043;-76
2023/06/15 21:34:06;;;;;;;13.75;4.95;;;;;;;19.24;54.29;101125.25;10282208;29;20502;-75
2023/06/15 21:39:08;;;;;;;9.00;4.70;;;;;;;19.20;55.06;101121.50;10284652;28;20043;-74
2023/06/15 21:44:11;;;;;;;9.85;4.53;;;;;;;19.20;54.58;101118.72;10275987;29;20514;-73
2023/06/15 21:49:14;;;;;;;12.68;5.03;;;;;;;19.10;54.53;101124.63;10270307;28;20054;-74
2023/06/15 21:54:16;;;;;;;9.80;4.85;;;;;;;19.10;55.28;101122.66;10268267;29;20514;-72
2023/06/15 21:59:19;;;;;;;12.18;4.80;;;;;;;19.07;55.73;101114.94;10278685;29;20039;-73
2023/06/15 22:04:21;;;;;;;9.68;4.10;;;;;;;19.07;55.30;101116.91;10284195;29;20058;-74
2023/06/15 22:09:23;;;;;;;16.65;5.80;;;;;;;19.03;55.30;101111.19;10279858;29;20051;-73
2023/06/15 22:14:26;;;;;;;9.45;4.30;;;;;;;18.88;55.94;101112.47;10278709;29;20050;-73
2023/06/15 22:19:29;;;;;;;9.95;5.50;;;;;;;18.80;55.89;101109.69;10281153;29;20043;-73
2023/06/15 22:24:31;;;;;;;7.18;4.18;;;;;;;18.98;55.42;101109.41;10251383;28;20047;-73
2023/06/15 22:29:33;;;;;;;6.28;4.28;;;;;;;18.88;55.71;101094.97;10296412;28;20050;-73
2023/06/15 22:34:36;;;;;;;9.13;4.63;;;;;;;18.70;56.12;101102.47;10268851;29;20035;-73
2023/06/15 22:39:42;;;;;;;9.85;4.90;;;;;;;18.49;56.26;101093.91;10281354;29;20070;-73
2023/06/15 22:44:44;;;;;;;10.10;4.78;;;;;;;18.39;56.30;101094.19;10282462;29;20043;-73
2023/06/15 22:49:46;;;;;;;6.10;4.10;;;;;;;18.42;55.96;101090.81;10284033;29;20395;-73
2023/06/15 22:54:49;;;;;;;8.00;4.72;;;;;;;18.48;55.50;101091.47;10296073;28;20043;-73
2023/06/15 22:59:51;;;;;;;10.00;5.35;;;;;;;18.33;56.25;101087.16;10281574;29;20051;-73
2023/06/15 23:04:54;;;;;;;13.68;6.40;;;;;;;18.21;56.63;101098.06;10281476;28;20059;-74
2023/06/15 23:09:57;;;;;;;15.50;7.18;;;;;;;18.15;57.23;101085.47;10280445;29;20047;-73
2023/06/15 23:15:00;;;;;;;15.27;7.30;;;;;;;18.20;57.14;101080.56;10279452;28;20050;-74